sensor_id;sensor_type;location;lat;lon;timestamp;P1;durP1;ratioP1;P2;durP2;ratioP2
1533;SDS011;760;48.822;9.304;2022-07-23T04:06:17;9.03;;;3.80;;
1533;SDS011;760;48.822;9.304;2022-07-23T04:08:43;3.97;;;3.67;;
1533;SDS011;760;48.822;9.304;2022-07-23T04:11:08;3.83;;;3.53;;
1533;SDS011;760;48.822;9.304;2022-07-23T04:13:34;4.07;;;3.57;;
1533;SDS011;760;48.822;9.304;2022-07-23T04:16:00;3.67;;;3.47;;
1533;SDS011;760;48.822;9.304;2022-07-23T04:18:25;3.43;;;3.13;;
1533;SDS011;760;48.822;9.304;2022-07-23T04:20:51;4.40;;;4.00;;
1533;SDS011;760;48.822;9.304;2022-07-23T04:23:17;3.80;;;3.50;;
1533;SDS011;760;48.822;9.304;2022-07-23T04:25:43;3.80;;;3.40;;
1533;SDS011;760;48.822;9.304;2022-07-23T04:28:09;3.77;;;3.47;;
1533;SDS011;760;48.822;9.304;2022-07-23T04:30:34;4.70;;;3.50;;
1533;SDS011;760;48.822;9.304;2022-07-23T04:33:00;3.73;;;3.33;;
1533;SDS011;760;48.822;9.304;2022-07-23T04:35:26;4.30;;;3.90;;
1533;SDS011;760;48.822;9.304;2022-07-23T04:37:51;4.30;;;3.87;;
1533;SDS011;760;48.822;9.304;2022-07-23T04:40:17;4.43;;;4.03;;
1533;SDS011;760;48.822;9.304;2022-07-23T04:42:43;3.70;;;3.40;;
1533;SDS011;760;48.822;9.304;2022-07-23T04:45:09;4.53;;;4.10;;
1533;SDS011;760;48.822;9.304;2022-07-23T04:47:34;4.33;;;3.97;;
1533;SDS011;760;48.822;9.304;2022-07-23T04:50:00;4.43;;;3.93;;
1533;SDS011;760;48.822;9.304;2022-07-23T04:52:26;4.10;;;3.70;;
1533;SDS011;760;48.822;9.304;2022-07-23T04:54:51;4.07;;;3.77;;
1533;SDS011;760;48.822;9.304;2022-07-23T04:57:17;4.23;;;3.90;;
1533;SDS011;760;48.822;9.304;2022-07-23T04:59:42;4.17;;;3.83;;
1533;SDS011;760;48.822;9.304;2022-07-23T05:02:08;4.70;;;4.30;;
1533;SDS011;760;48.822;9.304;2022-07-23T05:04:33;6.40;;;3.90;;
1533;SDS011;760;48.822;9.304;2022-07-23T05:06:59;3.90;;;3.60;;
1533;SDS011;760;48.822;9.304;2022-07-23T05:09:25;3.80;;;3.50;;
1533;SDS011;760;48.822;9.304;2022-07-23T05:11:51;3.83;;;3.53;;
1533;SDS011;760;48.822;9.304;2022-07-23T05:14:16;3.83;;;3.53;;
1533;SDS011;760;48.822;9.304;2022-07-23T05:16:42;3.80;;;3.50;;
1533;SDS011;760;48.822;9.304;2022-07-23T05:19:08;4.00;;;3.67;;
1533;SDS011;760;48.822;9.304;2022-07-23T05:21:33;3.93;;;3.63;;
1533;SDS011;760;48.822;9.304;2022-07-23T05:23:59;4.10;;;3.80;;
1533;SDS011;760;48.822;9.304;2022-07-23T05:26:25;3.97;;;3.67;;
1533;SDS011;760;48.822;9.304;2022-07-23T05:28:51;3.80;;;3.50;;
1533;SDS011;760;48.822;9.304;2022-07-23T05:31:17;4.03;;;3.63;;
1533;SDS011;760;48.822;9.304;2022-07-23T05:33:42;4.33;;;3.93;;
1533;SDS011;760;48.822;9.304;2022-07-23T05:36:08;4.87;;;4.47;;
1533;SDS011;760;48.822;9.304;2022-07-23T05:38:35;3.87;;;3.50;;
1533;SDS011;760;48.822;9.304;2022-07-23T05:41:01;4.30;;;3.90;;
1533;SDS011;760;48.822;9.304;2022-07-23T05:43:27;4.13;;;3.83;;
1533;SDS011;760;48.822;9.304;2022-07-23T05:45:53;5.07;;;4.20;;
1533;SDS011;760;48.822;9.304;2022-07-23T05:48:19;3.50;;;3.20;;
1533;SDS011;760;48.822;9.304;2022-07-23T05:50:46;5.23;;;4.60;;
1533;SDS011;760;48.822;9.304;2022-07-23T05:53:12;4.23;;;3.63;;
1533;SDS011;760;48.822;9.304;2022-07-23T05:55:37;4.53;;;4.13;;
1533;SDS011;760;48.822;9.304;2022-07-23T05:58:03;4.43;;;4.03;;
1533;SDS011;760;48.822;9.304;2022-07-23T06:00:29;3.97;;;3.60;;
1533;SDS011;760;48.822;9.304;2022-07-23T06:02:55;5.43;;;4.13;;
1533;SDS011;760;48.822;9.304;2022-07-23T06:05:20;5.90;;;3.47;;
1533;SDS011;760;48.822;9.304;2022-07-23T06:07:47;6.57;;;3.90;;
1533;SDS011;760;48.822;9.304;2022-07-23T06:10:12;5.30;;;4.90;;
1533;SDS011;760;48.822;9.304;2022-07-23T06:12:38;4.50;;;3.70;;
1533;SDS011;760;48.822;9.304;2022-07-23T06:15:04;3.93;;;3.60;;
1533;SDS011;760;48.822;9.304;2022-07-23T06:17:31;4.20;;;3.80;;
1533;SDS011;760;48.822;9.304;2022-07-23T06:19:56;4.43;;;3.97;;
1533;SDS011;760;48.822;9.304;2022-07-23T06:22:22;3.90;;;3.43;;
1533;SDS011;760;48.822;9.304;2022-07-23T06:24:49;4.73;;;3.90;;
1533;SDS011;760;48.822;9.304;2022-07-23T06:27:16;4.20;;;3.80;;
1533;SDS011;760;48.822;9.304;2022-07-23T06:29:42;4.73;;;4.33;;
1533;SDS011;760;48.822;9.304;2022-07-23T06:32:08;4.40;;;4.00;;
1533;SDS011;760;48.822;9.304;2022-07-23T06:34:33;4.90;;;4.47;;
1533;SDS011;760;48.822;9.304;2022-07-23T06:36:59;4.63;;;4.23;;
1533;SDS011;760;48.822;9.304;2022-07-23T06:39:25;3.93;;;3.63;;
1533;SDS011;760;48.822;9.304;2022-07-23T06:41:51;4.33;;;3.93;;
1533;SDS011;760;48.822;9.304;2022-07-23T06:44:17;4.60;;;4.13;;
1533;SDS011;760;48.822;9.304;2022-07-23T06:46:43;4.83;;;4.43;;
1533;SDS011;760;48.822;9.304;2022-07-23T06:49:09;5.23;;;4.60;;
1533;SDS011;760;48.822;9.304;2022-07-23T06:51:35;5.90;;;4.23;;
1533;SDS011;760;48.822;9.304;2022-07-23T06:54:01;4.60;;;4.20;;
1533;SDS011;760;48.822;9.304;2022-07-23T06:56:27;4.10;;;3.80;;
1533;SDS011;760;48.822;9.304;2022-07-23T06:58:53;3.70;;;3.40;;
1533;SDS011;760;48.822;9.304;2022-07-23T07:01:18;4.60;;;4.13;;
1533;SDS011;760;48.822;9.304;2022-07-23T07:03:44;4.47;;;4.10;;
1533;SDS011;760;48.822;9.304;2022-07-23T07:06:10;6.40;;;4.50;;
1533;SDS011;760;48.822;9.304;2022-07-23T07:08:36;5.23;;;4.13;;
1533;SDS011;760;48.822;9.304;2022-07-23T07:11:02;5.57;;;5.07;;
1533;SDS011;760;48.822;9.304;2022-07-23T07:13:31;4.50;;;4.20;;
1533;SDS011;760;48.822;9.304;2022-07-23T07:15:59;4.70;;;4.30;;
1533;SDS011;760;48.822;9.304;2022-07-23T07:18:25;5.80;;;4.33;;
1533;SDS011;760;48.822;9.304;2022-07-23T07:20:51;4.37;;;4.00;;
1533;SDS011;760;48.822;9.304;2022-07-23T07:23:19;5.07;;;4.60;;
1533;SDS011;760;48.822;9.304;2022-07-23T07:25:45;4.47;;;4.07;;
1533;SDS011;760;48.822;9.304;2022-07-23T07:28:11;5.43;;;4.90;;
1533;SDS011;760;48.822;9.304;2022-07-23T07:30:37;4.67;;;4.17;;
1533;SDS011;760;48.822;9.304;2022-07-23T07:33:03;5.57;;;5.07;;
1533;SDS011;760;48.822;9.304;2022-07-23T07:35:29;4.70;;;3.83;;
1533;SDS011;760;48.822;9.304;2022-07-23T07:37:56;5.87;;;4.50;;
1533;SDS011;760;48.822;9.304;2022-07-23T07:40:21;5.13;;;4.63;;
1533;SDS011;760;48.822;9.304;2022-07-23T07:42:51;5.03;;;4.63;;
1533;SDS011;760;48.822;9.304;2022-07-23T07:45:21;5.80;;;5.10;;
1533;SDS011;760;48.822;9.304;2022-07-23T07:47:48;6.30;;;5.00;;
1533;SDS011;760;48.822;9.304;2022-07-23T07:50:14;5.10;;;4.60;;
1533;SDS011;760;48.822;9.304;2022-07-23T07:52:39;5.70;;;5.20;;
1533;SDS011;760;48.822;9.304;2022-07-23T07:55:06;4.97;;;4.47;;
1533;SDS011;760;48.822;9.304;2022-07-23T07:57:33;5.50;;;5.10;;
1533;SDS011;760;48.822;9.304;2022-07-23T07:59:59;5.43;;;4.93;;
1533;SDS011;760;48.822;9.304;2022-07-23T08:02:25;5.00;;;4.47;;
1533;SDS011;760;48.822;9.304;2022-07-23T08:04:51;5.13;;;4.70;;
1533;SDS011;760;48.822;9.304;2022-07-23T08:07:16;6.77;;;4.40;;
1533;SDS011;760;48.822;9.304;2022-07-23T08:09:42;5.10;;;4.70;;
1533;SDS011;760;48.822;9.304;2022-07-23T08:12:08;6.37;;;5.30;;
1533;SDS011;760;48.822;9.304;2022-07-23T08:14:33;6.63;;;4.60;;
1533;SDS011;760;48.822;9.304;2022-07-23T08:17:01;5.67;;;5.17;;
1533;SDS011;760;48.822;9.304;2022-07-23T08:19:26;4.93;;;4.53;;
1533;SDS011;760;48.822;9.304;2022-07-23T08:21:52;5.53;;;5.03;;
1533;SDS011;760;48.822;9.304;2022-07-23T08:24:17;6.13;;;5.53;;
1533;SDS011;760;48.822;9.304;2022-07-23T08:26:43;5.53;;;5.03;;
1533;SDS011;760;48.822;9.304;2022-07-23T08:29:09;6.63;;;5.37;;
1533;SDS011;760;48.822;9.304;2022-07-23T08:31:34;4.93;;;4.53;;
1533;SDS011;760;48.822;9.304;2022-07-23T08:34:00;4.70;;;4.30;;
1533;SDS011;760;48.822;9.304;2022-07-23T08:36:27;5.80;;;5.30;;
1533;SDS011;760;48.822;9.304;2022-07-23T08:38:54;4.50;;;4.20;;
1533;SDS011;760;48.822;9.304;2022-07-23T08:41:20;4.80;;;4.40;;
1533;SDS011;760;48.822;9.304;2022-07-23T08:43:46;5.83;;;5.30;;
1533;SDS011;760;48.822;9.304;2022-07-23T08:46:12;4.50;;;4.10;;
1533;SDS011;760;48.822;9.304;2022-07-23T08:48:38;4.63;;;4.10;;
1533;SDS011;760;48.822;9.304;2022-07-23T08:51:05;4.43;;;4.03;;
1533;SDS011;760;48.822;9.304;2022-07-23T08:53:32;4.67;;;4.27;;
1533;SDS011;760;48.822;9.304;2022-07-23T08:55:59;6.60;;;5.33;;
1533;SDS011;760;48.822;9.304;2022-07-23T08:58:26;4.90;;;4.53;;
1533;SDS011;760;48.822;9.304;2022-07-23T09:00:52;4.90;;;4.50;;
1533;SDS011;760;48.822;9.304;2022-07-23T09:03:19;5.43;;;5.00;;
1533;SDS011;760;48.822;9.304;2022-07-23T09:05:46;5.40;;;4.90;;
1533;SDS011;760;48.822;9.304;2022-07-23T09:08:14;5.40;;;5.00;;
1533;SDS011;760;48.822;9.304;2022-07-23T09:10:58;5.13;;;4.73;;
1533;SDS011;760;48.822;9.304;2022-07-23T09:16:04;5.50;;;5.00;;
1533;SDS011;760;48.822;9.304;2022-07-23T09:18:34;5.70;;;5.30;;
1533;SDS011;760;48.822;9.304;2022-07-23T09:21:08;5.23;;;4.83;;
1533;SDS011;760;48.822;9.304;2022-07-23T09:24:08;4.50;;;4.20;;
1533;SDS011;760;48.822;9.304;2022-07-23T09:26:36;5.00;;;4.67;;
1533;SDS011;760;48.822;9.304;2022-07-23T09:29:15;5.23;;;4.93;;
1533;SDS011;760;48.822;9.304;2022-07-23T09:31:47;4.77;;;4.47;;
1533;SDS011;760;48.822;9.304;2022-07-23T09:36:42;5.07;;;4.67;;
1533;SDS011;760;48.822;9.304;2022-07-23T09:39:08;4.77;;;4.47;;
1533;SDS011;760;48.822;9.304;2022-07-23T09:41:39;4.43;;;4.20;;
1533;SDS011;760;48.822;9.304;2022-07-23T09:44:07;4.83;;;4.53;;
1533;SDS011;760;48.822;9.304;2022-07-23T09:46:34;6.30;;;4.73;;
1533;SDS011;760;48.822;9.304;2022-07-23T09:49:00;5.13;;;4.73;;
1533;SDS011;760;48.822;9.304;2022-07-23T09:51:43;5.17;;;4.80;;
1533;SDS011;760;48.822;9.304;2022-07-23T09:54:20;5.13;;;4.80;;
1533;SDS011;760;48.822;9.304;2022-07-23T09:56:48;5.40;;;5.00;;
1533;SDS011;760;48.822;9.304;2022-07-23T09:59:14;5.33;;;4.93;;
1533;SDS011;760;48.822;9.304;2022-07-23T10:01:43;3.93;;;3.73;;
1533;SDS011;760;48.822;9.304;2022-07-23T10:04:13;4.93;;;4.63;;
1533;SDS011;760;48.822;9.304;2022-07-23T10:06:39;4.90;;;4.60;;
1533;SDS011;760;48.822;9.304;2022-07-23T10:09:07;5.37;;;4.97;;
1533;SDS011;760;48.822;9.304;2022-07-23T10:11:37;4.63;;;4.33;;
1533;SDS011;760;48.822;9.304;2022-07-23T10:14:03;5.63;;;5.23;;
1533;SDS011;760;48.822;9.304;2022-07-23T10:16:30;5.03;;;4.60;;
1533;SDS011;760;48.822;9.304;2022-07-23T10:18:56;4.90;;;4.50;;
1533;SDS011;760;48.822;9.304;2022-07-23T10:21:40;4.97;;;4.67;;
1533;SDS011;760;48.822;9.304;2022-07-23T10:24:28;4.57;;;4.27;;
1533;SDS011;760;48.822;9.304;2022-07-23T10:30:10;4.50;;;4.20;;
1533;SDS011;760;48.822;9.304;2022-07-23T10:32:58;4.70;;;4.30;;
1533;SDS011;760;48.822;9.304;2022-07-23T10:35:47;5.87;;;5.47;;
1533;SDS011;760;48.822;9.304;2022-07-23T10:38:42;5.13;;;4.73;;
1533;SDS011;760;48.822;9.304;2022-07-23T10:41:34;5.03;;;4.73;;
1533;SDS011;760;48.822;9.304;2022-07-23T10:46:34;4.60;;;4.30;;
1533;SDS011;760;48.822;9.304;2022-07-23T10:54:43;4.67;;;4.37;;
1533;SDS011;760;48.822;9.304;2022-07-23T10:57:11;5.23;;;4.73;;
1533;SDS011;760;48.822;9.304;2022-07-23T11:02:35;4.53;;;4.23;;
1533;SDS011;760;48.822;9.304;2022-07-23T11:05:05;4.37;;;4.07;;
1533;SDS011;760;48.822;9.304;2022-07-23T11:07:36;5.17;;;4.53;;
1533;SDS011;760;48.822;9.304;2022-07-23T11:10:38;4.13;;;3.87;;
1533;SDS011;760;48.822;9.304;2022-07-23T11:13:25;6.57;;;5.00;;
1533;SDS011;760;48.822;9.304;2022-07-23T11:31:53;5.73;;;5.23;;
1533;SDS011;760;48.822;9.304;2022-07-23T11:37:04;5.40;;;4.80;;
1533;SDS011;760;48.822;9.304;2022-07-23T11:39:34;5.40;;;5.00;;
1533;SDS011;760;48.822;9.304;2022-07-23T11:42:01;5.40;;;4.90;;
1533;SDS011;760;48.822;9.304;2022-07-23T11:47:04;4.90;;;4.50;;
1533;SDS011;760;48.822;9.304;2022-07-23T11:49:31;4.37;;;3.97;;
1533;SDS011;760;48.822;9.304;2022-07-23T11:52:07;4.47;;;4.07;;
1533;SDS011;760;48.822;9.304;2022-07-23T11:54:35;4.70;;;4.30;;
1533;SDS011;760;48.822;9.304;2022-07-23T11:57:02;4.53;;;4.10;;
1533;SDS011;760;48.822;9.304;2022-07-23T11:59:30;4.90;;;4.43;;
1533;SDS011;760;48.822;9.304;2022-07-23T12:02:01;5.27;;;4.77;;
1533;SDS011;760;48.822;9.304;2022-07-23T12:04:39;4.00;;;3.70;;
1533;SDS011;760;48.822;9.304;2022-07-23T12:12:44;4.93;;;4.47;;
1533;SDS011;760;48.822;9.304;2022-07-23T12:15:39;4.07;;;3.83;;
1533;SDS011;760;48.822;9.304;2022-07-23T12:18:05;4.90;;;4.50;;
1533;SDS011;760;48.822;9.304;2022-07-23T12:20:36;4.43;;;4.03;;
1533;SDS011;760;48.822;9.304;2022-07-23T12:23:04;4.67;;;4.27;;
1533;SDS011;760;48.822;9.304;2022-07-23T12:25:32;4.40;;;4.07;;
1533;SDS011;760;48.822;9.304;2022-07-23T12:28:07;4.63;;;4.30;;
1533;SDS011;760;48.822;9.304;2022-07-23T12:30:45;4.60;;;4.20;;
1533;SDS011;760;48.822;9.304;2022-07-23T12:33:21;4.70;;;4.30;;
1533;SDS011;760;48.822;9.304;2022-07-23T12:35:47;4.47;;;4.07;;
1533;SDS011;760;48.822;9.304;2022-07-23T12:38:14;4.93;;;4.53;;
1533;SDS011;760;48.822;9.304;2022-07-23T12:43:12;4.77;;;4.37;;
1533;SDS011;760;48.822;9.304;2022-07-23T12:51:04;5.73;;;4.83;;
1533;SDS011;760;48.822;9.304;2022-07-23T12:53:49;5.03;;;4.53;;
1533;SDS011;760;48.822;9.304;2022-07-23T12:58:56;5.23;;;4.80;;
1533;SDS011;760;48.822;9.304;2022-07-23T13:01:23;5.70;;;5.20;;
1533;SDS011;760;48.822;9.304;2022-07-23T13:03:57;5.47;;;4.97;;
1533;SDS011;760;48.822;9.304;2022-07-23T13:06:30;5.17;;;4.70;;
1533;SDS011;760;48.822;9.304;2022-07-23T13:08:57;5.50;;;5.03;;
1533;SDS011;760;48.822;9.304;2022-07-23T13:11:23;5.37;;;4.97;;
1533;SDS011;760;48.822;9.304;2022-07-23T13:13:49;5.33;;;4.93;;
1533;SDS011;760;48.822;9.304;2022-07-23T13:16:14;5.13;;;4.73;;
1533;SDS011;760;48.822;9.304;2022-07-23T13:18:40;5.70;;;5.20;;
1533;SDS011;760;48.822;9.304;2022-07-23T13:21:06;5.27;;;4.87;;
1533;SDS011;760;48.822;9.304;2022-07-23T13:23:33;4.90;;;4.50;;
1533;SDS011;760;48.822;9.304;2022-07-23T13:25:59;6.10;;;4.83;;
1533;SDS011;760;48.822;9.304;2022-07-23T13:28:24;5.37;;;4.87;;
1533;SDS011;760;48.822;9.304;2022-07-23T13:30:50;4.80;;;4.40;;
1533;SDS011;760;48.822;9.304;2022-07-23T13:33:17;5.27;;;4.87;;
1533;SDS011;760;48.822;9.304;2022-07-23T13:35:44;5.90;;;5.40;;
1533;SDS011;760;48.822;9.304;2022-07-23T13:38:10;5.73;;;5.13;;
1533;SDS011;760;48.822;9.304;2022-07-23T13:40:37;5.40;;;5.00;;
1533;SDS011;760;48.822;9.304;2022-07-23T13:43:14;4.60;;;4.20;;
1533;SDS011;760;48.822;9.304;2022-07-23T13:45:41;5.13;;;4.73;;
1533;SDS011;760;48.822;9.304;2022-07-23T13:48:09;5.73;;;5.23;;
1533;SDS011;760;48.822;9.304;2022-07-23T13:50:36;5.70;;;5.20;;
1533;SDS011;760;48.822;9.304;2022-07-23T13:53:03;5.97;;;5.37;;
1533;SDS011;760;48.822;9.304;2022-07-23T13:55:34;5.80;;;5.30;;
1533;SDS011;760;48.822;9.304;2022-07-23T13:58:00;7.47;;;6.87;;
1533;SDS011;760;48.822;9.304;2022-07-23T14:00:27;5.63;;;5.13;;
1533;SDS011;760;48.822;9.304;2022-07-23T14:02:53;5.57;;;4.90;;
1533;SDS011;760;48.822;9.304;2022-07-23T14:05:19;9.10;;;6.03;;
1533;SDS011;760;48.822;9.304;2022-07-23T14:07:45;5.73;;;5.20;;
1533;SDS011;760;48.822;9.304;2022-07-23T14:10:14;5.47;;;4.97;;
1533;SDS011;760;48.822;9.304;2022-07-23T14:12:42;6.33;;;5.73;;
1533;SDS011;760;48.822;9.304;2022-07-23T14:15:09;6.97;;;6.30;;
1533;SDS011;760;48.822;9.304;2022-07-23T14:17:38;5.80;;;5.27;;
1533;SDS011;760;48.822;9.304;2022-07-23T14:20:06;6.47;;;5.30;;
1533;SDS011;760;48.822;9.304;2022-07-23T14:22:33;6.10;;;5.40;;
1533;SDS011;760;48.822;9.304;2022-07-23T14:24:59;6.37;;;5.80;;
1533;SDS011;760;48.822;9.304;2022-07-23T14:27:25;6.00;;;5.47;;
1533;SDS011;760;48.822;9.304;2022-07-23T14:29:52;6.67;;;6.07;;
1533;SDS011;760;48.822;9.304;2022-07-23T14:32:19;6.40;;;5.80;;
1533;SDS011;760;48.822;9.304;2022-07-23T14:34:45;6.47;;;5.87;;
1533;SDS011;760;48.822;9.304;2022-07-23T14:37:11;6.87;;;5.67;;
1533;SDS011;760;48.822;9.304;2022-07-23T14:39:40;5.70;;;5.20;;
1533;SDS011;760;48.822;9.304;2022-07-23T14:42:07;5.70;;;5.20;;
1533;SDS011;760;48.822;9.304;2022-07-23T14:44:33;5.60;;;5.10;;
1533;SDS011;760;48.822;9.304;2022-07-23T14:46:59;5.60;;;5.10;;
1533;SDS011;760;48.822;9.304;2022-07-23T14:49:26;5.20;;;4.80;;
1533;SDS011;760;48.822;9.304;2022-07-23T14:51:52;5.70;;;5.30;;
1533;SDS011;760;48.822;9.304;2022-07-23T14:54:17;12.87;;;10.33;;
1533;SDS011;760;48.822;9.304;2022-07-23T14:56:44;10.20;;;8.10;;
1533;SDS011;760;48.822;9.304;2022-07-23T14:59:10;6.40;;;5.80;;
1533;SDS011;760;48.822;9.304;2022-07-23T15:01:36;6.03;;;5.47;;
1533;SDS011;760;48.822;9.304;2022-07-23T15:04:02;6.03;;;5.53;;
1533;SDS011;760;48.822;9.304;2022-07-23T15:06:32;6.50;;;5.90;;
1533;SDS011;760;48.822;9.304;2022-07-23T15:08:58;5.93;;;5.43;;
1533;SDS011;760;48.822;9.304;2022-07-23T15:11:25;5.60;;;5.10;;
1533;SDS011;760;48.822;9.304;2022-07-23T15:13:51;6.10;;;5.53;;
1533;SDS011;760;48.822;9.304;2022-07-23T15:16:17;6.30;;;5.70;;
1533;SDS011;760;48.822;9.304;2022-07-23T15:18:43;5.87;;;5.37;;
1533;SDS011;760;48.822;9.304;2022-07-23T15:21:08;5.87;;;5.37;;
1533;SDS011;760;48.822;9.304;2022-07-23T15:23:34;5.50;;;5.10;;
1533;SDS011;760;48.822;9.304;2022-07-23T15:26:00;5.57;;;4.73;;
1533;SDS011;760;48.822;9.304;2022-07-23T15:28:26;7.00;;;5.63;;
1533;SDS011;760;48.822;9.304;2022-07-23T15:30:52;5.60;;;5.10;;
1533;SDS011;760;48.822;9.304;2022-07-23T15:33:18;5.57;;;5.07;;
1533;SDS011;760;48.822;9.304;2022-07-23T15:35:44;6.37;;;5.80;;
1533;SDS011;760;48.822;9.304;2022-07-23T15:38:10;6.73;;;5.67;;
1533;SDS011;760;48.822;9.304;2022-07-23T15:40:36;6.00;;;5.40;;
1533;SDS011;760;48.822;9.304;2022-07-23T15:43:02;5.23;;;4.70;;
1533;SDS011;760;48.822;9.304;2022-07-23T15:45:29;5.53;;;5.03;;
1533;SDS011;760;48.822;9.304;2022-07-23T15:47:56;6.10;;;5.60;;
1533;SDS011;760;48.822;9.304;2022-07-23T15:50:22;6.33;;;5.73;;
1533;SDS011;760;48.822;9.304;2022-07-23T15:52:48;6.07;;;5.47;;
1533;SDS011;760;48.822;9.304;2022-07-23T15:55:14;9.13;;;6.00;;
1533;SDS011;760;48.822;9.304;2022-07-23T15:57:40;5.40;;;5.00;;
1533;SDS011;760;48.822;9.304;2022-07-23T16:00:05;6.20;;;5.70;;
1533;SDS011;760;48.822;9.304;2022-07-23T16:02:33;6.63;;;5.93;;
1533;SDS011;760;48.822;9.304;2022-07-23T16:04:58;6.40;;;5.80;;
1533;SDS011;760;48.822;9.304;2022-07-23T16:07:24;6.27;;;5.70;;
1533;SDS011;760;48.822;9.304;2022-07-23T16:09:50;6.23;;;5.73;;
1533;SDS011;760;48.822;9.304;2022-07-23T16:12:15;6.10;;;5.40;;
1533;SDS011;760;48.822;9.304;2022-07-23T16:14:41;6.43;;;5.83;;
1533;SDS011;760;48.822;9.304;2022-07-23T16:17:07;6.20;;;5.60;;
1533;SDS011;760;48.822;9.304;2022-07-23T16:19:33;6.43;;;4.70;;
1533;SDS011;760;48.822;9.304;2022-07-23T16:21:58;6.97;;;6.27;;
1533;SDS011;760;48.822;9.304;2022-07-23T16:24:24;6.60;;;6.10;;
1533;SDS011;760;48.822;9.304;2022-07-23T16:26:50;8.80;;;6.20;;
1533;SDS011;760;48.822;9.304;2022-07-23T16:29:15;7.20;;;6.60;;
1533;SDS011;760;48.822;9.304;2022-07-23T16:31:41;7.47;;;6.80;;
1533;SDS011;760;48.822;9.304;2022-07-23T16:34:07;7.50;;;6.80;;
1533;SDS011;760;48.822;9.304;2022-07-23T16:36:32;6.30;;;5.70;;
1533;SDS011;760;48.822;9.304;2022-07-23T16:38:59;7.50;;;6.67;;
1533;SDS011;760;48.822;9.304;2022-07-23T16:41:26;7.17;;;6.57;;
1533;SDS011;760;48.822;9.304;2022-07-23T16:43:52;6.90;;;6.23;;
1533;SDS011;760;48.822;9.304;2022-07-23T16:46:17;6.93;;;6.23;;
1533;SDS011;760;48.822;9.304;2022-07-23T16:48:43;6.60;;;6.00;;
1533;SDS011;760;48.822;9.304;2022-07-23T16:51:09;7.53;;;6.83;;
1533;SDS011;760;48.822;9.304;2022-07-23T16:53:35;7.00;;;6.30;;
1533;SDS011;760;48.822;9.304;2022-07-23T16:56:02;7.53;;;6.73;;
1533;SDS011;760;48.822;9.304;2022-07-23T16:58:29;6.87;;;6.27;;
1533;SDS011;760;48.822;9.304;2022-07-23T17:00:55;6.50;;;5.90;;
1533;SDS011;760;48.822;9.304;2022-07-23T17:03:21;7.20;;;6.50;;
1533;SDS011;760;48.822;9.304;2022-07-23T17:05:48;6.97;;;6.27;;
1533;SDS011;760;48.822;9.304;2022-07-23T17:08:14;6.73;;;6.10;;
1533;SDS011;760;48.822;9.304;2022-07-23T17:10:40;7.30;;;6.60;;
1533;SDS011;760;48.822;9.304;2022-07-23T17:13:06;6.93;;;6.33;;
1533;SDS011;760;48.822;9.304;2022-07-23T17:15:32;7.40;;;6.70;;
1533;SDS011;760;48.822;9.304;2022-07-23T17:17:59;7.07;;;6.27;;
1533;SDS011;760;48.822;9.304;2022-07-23T17:20:25;6.93;;;6.33;;
1533;SDS011;760;48.822;9.304;2022-07-23T17:22:51;9.97;;;6.17;;
1533;SDS011;760;48.822;9.304;2022-07-23T17:25:16;7.00;;;6.37;;
1533;SDS011;760;48.822;9.304;2022-07-23T17:27:44;8.00;;;6.80;;
1533;SDS011;760;48.822;9.304;2022-07-23T17:30:11;7.10;;;6.50;;
1533;SDS011;760;48.822;9.304;2022-07-23T17:32:37;7.10;;;6.40;;
1533;SDS011;760;48.822;9.304;2022-07-23T17:35:03;7.70;;;6.20;;
1533;SDS011;760;48.822;9.304;2022-07-23T17:37:30;6.93;;;6.33;;
1533;SDS011;760;48.822;9.304;2022-07-23T17:39:56;7.70;;;6.90;;
1533;SDS011;760;48.822;9.304;2022-07-23T17:42:22;6.57;;;5.80;;
1533;SDS011;760;48.822;9.304;2022-07-23T17:44:48;7.20;;;6.50;;
1533;SDS011;760;48.822;9.304;2022-07-23T17:47:13;7.80;;;7.10;;
1533;SDS011;760;48.822;9.304;2022-07-23T17:49:39;7.23;;;6.50;;
1533;SDS011;760;48.822;9.304;2022-07-23T17:52:04;6.27;;;5.77;;
1533;SDS011;760;48.822;9.304;2022-07-23T17:54:31;6.73;;;6.03;;
1533;SDS011;760;48.822;9.304;2022-07-23T17:56:57;5.90;;;5.40;;
1533;SDS011;760;48.822;9.304;2022-07-23T17:59:23;7.17;;;6.00;;
1533;SDS011;760;48.822;9.304;2022-07-23T18:01:49;7.30;;;6.60;;
1533;SDS011;760;48.822;9.304;2022-07-23T18:04:17;6.33;;;5.73;;
1533;SDS011;760;48.822;9.304;2022-07-23T18:06:43;7.03;;;6.33;;
1533;SDS011;760;48.822;9.304;2022-07-23T18:09:09;9.20;;;6.67;;
1533;SDS011;760;48.822;9.304;2022-07-23T18:11:36;8.23;;;7.47;;
1533;SDS011;760;48.822;9.304;2022-07-23T18:14:03;7.27;;;6.57;;
1533;SDS011;760;48.822;9.304;2022-07-23T18:16:29;6.97;;;6.10;;
1533;SDS011;760;48.822;9.304;2022-07-23T18:18:55;8.13;;;7.20;;
1533;SDS011;760;48.822;9.304;2022-07-23T18:21:20;7.30;;;6.60;;
1533;SDS011;760;48.822;9.304;2022-07-23T18:23:46;7.50;;;6.90;;
1533;SDS011;760;48.822;9.304;2022-07-23T18:26:12;7.20;;;6.50;;
1533;SDS011;760;48.822;9.304;2022-07-23T18:28:38;8.10;;;7.20;;
1533;SDS011;760;48.822;9.304;2022-07-23T18:31:04;8.03;;;7.17;;
1533;SDS011;760;48.822;9.304;2022-07-23T18:33:31;7.73;;;7.00;;
1533;SDS011;760;48.822;9.304;2022-07-23T18:35:57;6.67;;;6.00;;
1533;SDS011;760;48.822;9.304;2022-07-23T18:38:23;6.70;;;6.20;;
1533;SDS011;760;48.822;9.304;2022-07-23T18:40:49;7.80;;;7.00;;
1533;SDS011;760;48.822;9.304;2022-07-23T18:43:15;7.70;;;6.90;;
1533;SDS011;760;48.822;9.304;2022-07-23T18:45:41;7.40;;;6.70;;
1533;SDS011;760;48.822;9.304;2022-07-23T18:48:07;6.53;;;5.83;;
1533;SDS011;760;48.822;9.304;2022-07-23T18:50:33;7.17;;;6.53;;
1533;SDS011;760;48.822;9.304;2022-07-23T18:52:59;7.63;;;6.83;;
1533;SDS011;760;48.822;9.304;2022-07-23T18:55:24;6.60;;;6.00;;
1533;SDS011;760;48.822;9.304;2022-07-23T18:57:50;7.73;;;7.03;;
1533;SDS011;760;48.822;9.304;2022-07-23T19:00:17;6.27;;;5.67;;
1533;SDS011;760;48.822;9.304;2022-07-23T19:02:43;8.50;;;7.70;;
1533;SDS011;760;48.822;9.304;2022-07-23T19:05:09;7.27;;;6.57;;
1533;SDS011;760;48.822;9.304;2022-07-23T19:07:35;7.43;;;6.73;;
1533;SDS011;760;48.822;9.304;2022-07-23T19:10:03;7.00;;;6.40;;
1533;SDS011;760;48.822;9.304;2022-07-23T19:12:30;6.43;;;5.73;;
1533;SDS011;760;48.822;9.304;2022-07-23T19:14:55;7.50;;;6.70;;
1533;SDS011;760;48.822;9.304;2022-07-23T19:17:21;6.83;;;6.17;;
1533;SDS011;760;48.822;9.304;2022-07-23T19:19:47;6.80;;;6.20;;
1533;SDS011;760;48.822;9.304;2022-07-23T19:22:13;7.90;;;7.30;;
1533;SDS011;760;48.822;9.304;2022-07-23T19:24:38;7.40;;;6.70;;
1533;SDS011;760;48.822;9.304;2022-07-23T19:27:04;7.40;;;6.73;;
1533;SDS011;760;48.822;9.304;2022-07-23T19:29:30;7.17;;;6.47;;
1533;SDS011;760;48.822;9.304;2022-07-23T19:32:00;6.43;;;5.93;;
1533;SDS011;760;48.822;9.304;2022-07-23T19:34:26;6.60;;;6.00;;
1533;SDS011;760;48.822;9.304;2022-07-23T19:36:52;7.50;;;6.80;;
1533;SDS011;760;48.822;9.304;2022-07-23T19:39:17;7.80;;;7.10;;
1533;SDS011;760;48.822;9.304;2022-07-23T19:41:43;7.57;;;6.87;;
1533;SDS011;760;48.822;9.304;2022-07-23T19:44:09;8.83;;;7.93;;
1533;SDS011;760;48.822;9.304;2022-07-23T19:46:34;7.77;;;7.03;;
1533;SDS011;760;48.822;9.304;2022-07-23T19:49:00;7.67;;;6.90;;
1533;SDS011;760;48.822;9.304;2022-07-23T19:51:27;7.53;;;6.83;;
1533;SDS011;760;48.822;9.304;2022-07-23T19:53:53;6.33;;;5.80;;
1533;SDS011;760;48.822;9.304;2022-07-23T19:56:18;10.30;;;7.20;;
1533;SDS011;760;48.822;9.304;2022-07-23T19:58:46;8.53;;;7.30;;
1533;SDS011;760;48.822;9.304;2022-07-23T20:01:13;7.70;;;6.97;;
1533;SDS011;760;48.822;9.304;2022-07-23T20:03:39;8.20;;;7.50;;
1533;SDS011;760;48.822;9.304;2022-07-23T20:06:05;7.33;;;6.63;;
1533;SDS011;760;48.822;9.304;2022-07-23T20:08:30;6.63;;;6.03;;
1533;SDS011;760;48.822;9.304;2022-07-23T20:10:56;8.13;;;7.37;;
1533;SDS011;760;48.822;9.304;2022-07-23T20:13:22;7.97;;;7.17;;
1533;SDS011;760;48.822;9.304;2022-07-23T20:15:47;7.07;;;6.37;;
1533;SDS011;760;48.822;9.304;2022-07-23T20:18:14;8.47;;;7.67;;
1533;SDS011;760;48.822;9.304;2022-07-23T20:20:40;9.40;;;8.50;;
1533;SDS011;760;48.822;9.304;2022-07-23T20:23:06;7.30;;;6.57;;
1533;SDS011;760;48.822;9.304;2022-07-23T20:25:31;9.10;;;7.60;;
1533;SDS011;760;48.822;9.304;2022-07-23T20:27:57;7.40;;;6.70;;
1533;SDS011;760;48.822;9.304;2022-07-23T20:30:25;8.00;;;7.20;;
1533;SDS011;760;48.822;9.304;2022-07-23T20:32:51;8.27;;;7.57;;